Time;durP1;ratioP1;P1;durP2;ratioP2;P2;SDS_P1;SDS_P2;PMS_P1;PMS_P2;Temp;Humidity;BMP_temperature;BMP_pressure;BME280_temperature;BME280_humidity;BME280_pressure;Samples;Min_cycle;Max_cycle;Signal;HPM_P1;HPM_P2
2023/11/28 00:02:02;;;;;;;;;;;;;;;3.62;72.16;95626.22;5008352;28;20764;-74
2023/11/28 00:04:51;;;;;;;;;;;;;;;3.76;71.83;95625.22;5010999;28;19929;-73
2023/11/28 00:07:40;;;;;;;;;;;;;;;3.75;72.04;95620.97;5008431;28;19968;-73
2023/11/28 00:10:28;;;;;;;;;;;;;;;3.78;72.00;95618.41;5008365;28;20160;-73
2023/11/28 00:13:16;;;;;;;;;;;;;;;3.79;72.04;95621.91;5010962;28;19929;-73
2023/11/28 00:16:04;;;;;;;;;;;;;;;3.81;71.48;95619.66;5005830;28;19934;-73
2023/11/28 00:18:53;;;;;;;;;;;;;;;3.80;71.68;95613.50;5012406;28;19983;-74
2023/11/28 00:21:41;;;;;;;;;;;;;;;3.82;71.84;95600.53;5001630;28;20027;-74
2023/11/28 00:24:33;;;;;;;;;;;;;;;3.78;72.10;95598.81;5006702;28;19952;-73
2023/11/28 00:27:21;;;;;;;;;;;;;;;3.77;72.40;95602.59;5008306;28;20358;-73
2023/11/28 00:30:12;;;;;;;;;;;;;;;3.74;72.60;95598.69;5004004;28;19926;-73
2023/11/28 00:33:01;;;;;;;;;;;;;;;3.77;72.19;95603.41;4992166;28;19961;-73
2023/11/28 00:35:49;;;;;;;;;;;;;;;3.89;72.01;95598.13;5004940;28;19929;-74
2023/11/28 00:38:38;;;;;;;;;;;;;;;3.94;71.76;95589.09;5005944;28;19933;-73
2023/11/28 00:41:29;;;;;;;;;;;;;;;3.94;71.91;95602.50;5005438;28;20283;-79
2023/11/28 00:44:20;;;;;;;;;;;;;;;4.09;70.86;95587.72;4996935;28;19957;-73
2023/11/28 00:47:09;;;;;;;;;;;;;;;4.06;71.21;95588.41;4993810;28;19937;-74
2023/11/28 00:49:58;;;;;;;;;;;;;;;4.07;71.59;95587.28;5011759;28;20007;-75
2023/11/28 00:52:46;;;;;;;;;;;;;;;4.14;71.27;95584.84;5007218;28;19933;-74
2023/11/28 00:55:34;;;;;;;;;;;;;;;4.15;70.87;95583.75;5005791;28;19931;-73
2023/11/28 00:58:24;;;;;;;;;;;;;;;4.13;71.29;95584.06;5010487;28;19929;-73
2023/11/28 01:01:15;;;;;;;;;;;;;;;4.07;70.90;95582.69;5006121;28;19929;-73
2023/11/28 01:04:05;;;;;;;;;;;;;;;4.05;70.99;95579.56;5007020;28;19925;-75
2023/11/28 01:06:54;;;;;;;;;;;;;;;4.02;71.17;95574.03;5010028;28;19937;-73
2023/11/28 01:09:42;;;;;;;;;;;;;;;4.15;71.35;95579.16;5008759;28;19984;-74
2023/11/28 01:12:31;;;;;;;;;;;;;;;3.90;72.22;95572.84;5007529;28;19925;-73
2023/11/28 01:15:20;;;;;;;;;;;;;;;3.99;71.94;95572.00;5002609;28;19959;-73
2023/11/28 01:18:09;;;;;;;;;;;;;;;4.02;71.29;95577.50;4992958;28;19933;-73
2023/11/28 01:20:58;;;;;;;;;;;;;;;4.05;71.90;95571.50;4992427;28;20044;-74
2023/11/28 01:23:46;;;;;;;;;;;;;;;4.10;71.41;95574.00;4990424;28;19936;-73
2023/11/28 01:26:34;;;;;;;;;;;;;;;4.04;71.74;95569.91;5005279;28;20004;-74
2023/11/28 01:29:22;;;;;;;;;;;;;;;3.91;72.45;95568.25;5007178;28;20015;-74
2023/11/28 01:32:11;;;;;;;;;;;;;;;4.00;72.10;95560.94;5007139;28;20378;-74
2023/11/28 01:34:59;;;;;;;;;;;;;;;4.02;71.88;95555.22;4992323;28;19953;-76
2023/11/28 01:37:47;;;;;;;;;;;;;;;3.97;72.11;95552.72;5005406;28;19925;-73
2023/11/28 01:40:36;;;;;;;;;;;;;;;3.96;72.25;95545.78;5007555;28;19925;-74
2023/11/28 01:43:24;;;;;;;;;;;;;;;3.99;72.20;95545.13;5008765;28;19933;-73
2023/11/28 01:46:12;;;;;;;;;;;;;;;3.97;72.08;95548.16;4997072;28;19925;-73
2023/11/28 01:49:02;;;;;;;;;;;;;;;4.03;71.92;95543.38;5006618;28;19971;-75
2023/11/28 01:51:50;;;;;;;;;;;;;;;4.11;71.51;95548.69;5007776;28;19936;-72
2023/11/28 01:54:38;;;;;;;;;;;;;;;4.11;71.59;95540.63;5008983;28;20307;-73
2023/11/28 01:57:29;;;;;;;;;;;;;;;4.14;71.33;95536.50;5009597;28;19932;-73
2023/11/28 02:00:20;;;;;;;;;;;;;;;4.15;71.34;95546.91;5000986;28;20372;-73
2023/11/28 02:03:08;;;;;;;;;;;;;;;4.18;71.44;95538.19;5006205;28;19933;-74
2023/11/28 02:05:59;;;;;;;;;;;;;;;3.98;71.58;95536.28;5004223;28;19977;-74
2023/11/28 02:08:47;;;;;;;;;;;;;;;4.07;71.69;95533.53;4988620;28;20431;-73
2023/11/28 02:11:38;;;;;;;;;;;;;;;4.17;71.96;95535.84;5007665;28;20024;-74
2023/11/28 02:14:25;;;;;;;;;;;;;;;4.16;71.51;95537.75;5004928;28;19926;-73
2023/11/28 02:17:14;;;;;;;;;;;;;;;4.18;71.52;95537.41;4993610;28;19944;-73
2023/11/28 02:20:04;;;;;;;;;;;;;;;4.07;71.87;95537.03;4992621;28;19977;-74
2023/11/28 02:22:56;;;;;;;;;;;;;;;4.15;71.45;95541.53;5003605;28;21509;-73
2023/11/28 02:25:45;;;;;;;;;;;;;;;4.05;72.00;95533.88;5001778;28;20311;-73
2023/11/28 02:28:36;;;;;;;;;;;;;;;4.15;71.40;95538.84;4997207;28;19965;-74
2023/11/28 02:31:24;;;;;;;;;;;;;;;3.84;72.30;95538.44;4990763;28;19932;-73
2023/11/28 02:34:13;;;;;;;;;;;;;;;4.03;72.38;95535.31;5008281;28;20057;-74
2023/11/28 02:37:01;;;;;;;;;;;;;;;4.08;71.60;95529.75;5007179;28;19979;-73
2023/11/28 02:39:50;;;;;;;;;;;;;;;4.10;71.56;95525.63;5001953;28;19965;-73
2023/11/28 02:42:38;;;;;;;;;;;;;;;4.01;72.05;95530.28;5001338;28;19953;-73
2023/11/28 02:45:27;;;;;;;;;;;;;;;3.98;72.17;95528.22;4991470;28;19932;-73
2023/11/28 02:48:15;;;;;;;;;;;;;;;4.05;71.93;95523.13;5002153;28;19936;-73
2023/11/28 02:51:04;;;;;;;;;;;;;;;4.13;71.98;95522.28;4999997;28;19929;-76
2023/11/28 02:53:52;;;;;;;;;;;;;;;4.08;71.80;95521.69;5001882;28;20411;-73
2023/11/28 02:56:40;;;;;;;;;;;;;;;4.08;71.97;95522.47;5000252;28;19979;-73
2023/11/28 02:59:28;;;;;;;;;;;;;;;4.05;72.20;95523.13;4987800;28;20079;-73
2023/11/28 03:02:18;;;;;;;;;;;;;;;4.17;71.51;95514.34;5004547;28;19933;-73
2023/11/28 03:05:07;;;;;;;;;;;;;;;4.18;71.61;95519.38;5003314;28;19933;-74
2023/11/28 03:07:55;;;;;;;;;;;;;;;4.13;71.63;95508.84;5003972;28;19925;-73
2023/11/28 03:10:43;;;;;;;;;;;;;;;4.14;71.46;95510.41;4993174;28;19979;-74
2023/11/28 03:13:31;;;;;;;;;;;;;;;4.13;71.70;95508.06;5006472;28;20307;-73
2023/11/28 03:16:20;;;;;;;;;;;;;;;4.04;71.30;95502.72;4990401;28;19981;-74
2023/11/28 03:19:11;;;;;;;;;;;;;;;3.98;71.68;95489.84;5002137;28;19933;-73
2023/11/28 03:21:59;;;;;;;;;;;;;;;3.92;72.20;95491.94;5005677;28;20401;-74
2023/11/28 03:24:47;;;;;;;;;;;;;;;3.90;71.71;95488.78;5005126;28;19926;-74
2023/11/28 03:27:36;;;;;;;;;;;;;;;4.00;72.12;95491.09;5005911;28;19926;-74
2023/11/28 03:30:25;;;;;;;;;;;;;;;4.05;71.83;95484.72;4987413;28;20056;-73
2023/11/28 03:33:13;;;;;;;;;;;;;;;3.95;72.26;95491.28;4995282;28;19926;-73
2023/11/28 03:36:03;;;;;;;;;;;;;;;3.99;71.79;95486.81;4999608;28;19925;-74
2023/11/28 03:38:53;;;;;;;;;;;;;;;4.02;71.73;95488.06;5008928;28;20019;-73
2023/11/28 03:41:41;;;;;;;;;;;;;;;4.11;71.81;95483.41;4989604;28;20016;-73
2023/11/28 03:44:29;;;;;;;;;;;;;;;4.07;71.69;95480.59;4978046;28;19934;-74
2023/11/28 03:47:17;;;;;;;;;;;;;;;4.09;71.82;95478.34;4988084;28;19959;-74
2023/11/28 03:50:06;;;;;;;;;;;;;;;4.23;71.39;95477.31;4987389;28;19933;-74
2023/11/28 03:52:55;;;;;;;;;;;;;;;4.14;71.19;95477.38;4991128;28;22725;-74
2023/11/28 03:55:44;;;;;;;;;;;;;;;4.20;70.91;95476.84;4990028;28;20507;-74
2023/11/28 03:58:31;;;;;;;;;;;;;;;4.13;71.13;95476.59;4981218;28;19986;-73
2023/11/28 04:01:21;;;;;;;;;;;;;;;4.18;71.29;95479.06;4989049;28;19972;-74
2023/11/28 04:04:10;;;;;;;;;;;;;;;4.16;71.52;95480.53;4987040;28;19926;-73
2023/11/28 04:06:58;;;;;;;;;;;;;;;4.03;71.45;95481.56;4988628;28;19926;-73
2023/11/28 04:09:47;;;;;;;;;;;;;;;4.06;71.80;95478.25;4973432;28;19926;-73
2023/11/28 04:12:36;;;;;;;;;;;;;;;3.13;74.54;95478.16;4975165;28;19934;-74
2023/11/28 04:15:24;;;;;;;;;;;;;;;3.20;75.05;95483.06;4986532;28;19930;-73
2023/11/28 04:18:12;;;;;;;;;;;;;;;3.40;74.55;95468.09;4989286;28;19926;-73
2023/11/28 04:21:00;;;;;;;;;;;;;;;3.26;74.73;95464.88;4989522;28;20047;-74
2023/11/28 04:23:48;;;;;;;;;;;;;;;3.65;74.30;95467.16;4988803;28;20333;-74
2023/11/28 04:26:41;;;;;;;;;;;;;;;3.76;73.65;95466.75;4987819;28;19926;-73
2023/11/28 04:29:29;;;;;;;;;;;;;;;3.74;73.24;95474.38;4971517;28;20380;-73
2023/11/28 04:32:19;;;;;;;;;;;;;;;3.80;73.32;95468.47;4974876;28;20411;-73
2023/11/28 04:35:08;;;;;;;;;;;;;;;3.65;73.73;95471.75;4975323;28;19941;-73
2023/11/28 04:37:56;;;;;;;;;;;;;;;3.70;73.11;95468.88;4992124;28;19967;-73
2023/11/28 04:40:44;;;;;;;;;;;;;;;3.75;72.71;95473.25;4988661;28;20004;-73
2023/11/28 04:43:34;;;;;;;;;;;;;;;3.96;72.32;95470.56;4998010;28;19932;-73
2023/11/28 04:46:22;;;;;;;;;;;;;;;3.90;72.43;95472.69;4992886;28;20375;-73
2023/11/28 04:49:12;;;;;;;;;;;;;;;3.99;72.64;95469.91;4992814;28;19929;-73
2023/11/28 04:52:01;;;;;;;;;;;;;;;3.99;72.34;95465.31;4993717;28;20425;-74
2023/11/28 04:54:49;;;;;;;;;;;;;;;4.05;71.69;95458.66;5004309;28;19932;-73
2023/11/28 04:57:38;;;;;;;;;;;;;;;4.11;71.59;95462.72;4994055;28;19926;-74
2023/11/28 05:00:30;;;;;;;;;;;;;;;4.17;71.44;95466.75;5006208;28;20413;-74
2023/11/28 05:03:18;;;;;;;;;;;;;;;4.16;70.88;95470.56;5000929;28;19926;-73
2023/11/28 05:06:06;;;;;;;;;;;;;;;4.09;70.88;95459.53;4996854;28;20287;-74
2023/11/28 05:08:55;;;;;;;;;;;;;;;4.18;70.66;95462.94;5010316;28;19933;-74
2023/11/28 05:11:43;;;;;;;;;;;;;;;4.17;71.11;95464.06;4997540;28;19933;-74
2023/11/28 05:14:31;;;;;;;;;;;;;;;4.26;70.55;95468.56;4993134;28;20018;-73
2023/11/28 05:17:20;;;;;;;;;;;;;;;4.22;70.92;95467.69;5009291;28;19973;-74
2023/11/28 05:20:10;;;;;;;;;;;;;;;4.20;70.48;95470.69;5005281;28;19926;-74
2023/11/28 05:22:59;;;;;;;;;;;;;;;4.09;70.61;95480.25;5007366;28;20384;-73
2023/11/28 05:25:48;;;;;;;;;;;;;;;4.14;70.64;95466.63;4994470;28;19929;-73
2023/11/28 05:28:36;;;;;;;;;;;;;;;4.27;70.85;95464.78;5002330;28;19937;-73
2023/11/28 05:31:24;;;;;;;;;;;;;;;4.35;70.53;95466.59;5009945;28;20032;-75
2023/11/28 05:34:15;;;;;;;;;;;;;;;4.43;70.30;95468.44;5007663;28;19925;-73
2023/11/28 05:37:03;;;;;;;;;;;;;;;4.44;69.91;95472.69;4988098;28;19948;-74
2023/11/28 05:39:51;;;;;;;;;;;;;;;4.39;69.75;95470.19;4995582;28;20426;-73
2023/11/28 05:42:39;;;;;;;;;;;;;;;4.29;70.05;95470.59;4992024;28;19926;-74
2023/11/28 05:45:28;;;;;;;;;;;;;;;4.24;70.11;95471.59;5007563;28;20387;-73
2023/11/28 05:48:16;;;;;;;;;;;;;;;4.31;69.65;95477.22;5010819;28;19929;-73
2023/11/28 05:51:06;;;;;;;;;;;;;;;4.31;70.16;95476.44;4991581;28;19925;-74
2023/11/28 05:53:54;;;;;;;;;;;;;;;4.18;70.29;95484.44;5010221;28;19925;-73
2023/11/28 05:56:42;;;;;;;;;;;;;;;4.10;70.42;95482.63;5005170;28;20029;-74
2023/11/28 05:59:34;;;;;;;;;;;;;;;4.18;70.69;95489.03;5006118;28;19926;-73
2023/11/28 06:02:23;;;;;;;;;;;;;;;4.07;70.80;95485.97;4991464;28;19933;-74
2023/11/28 06:05:13;;;;;;;;;;;;;;;4.06;71.06;95484.41;5003352;28;19926;-73
2023/11/28 06:08:02;;;;;;;;;;;;;;;4.17;70.95;95482.09;5002710;28;20012;-73
2023/11/28 06:10:52;;;;;;;;;;;;;;;4.08;70.66;95484.84;4998918;28;20371;-73
2023/11/28 06:13:41;;;;;;;;;;;;;;;4.13;70.62;95487.34;5005196;28;19926;-74
2023/11/28 06:16:29;;;;;;;;;;;;;;;4.10;70.22;95488.00;4993161;28;19971;-74
2023/11/28 06:19:17;;;;;;;;;;;;;;;4.14;70.30;95494.28;4991167;28;19976;-74
2023/11/28 06:22:06;;;;;;;;;;;;;;;4.04;70.43;95494.66;4994569;28;20063;-73
2023/11/28 06:24:56;;;;;;;;;;;;;;;4.12;71.00;95491.16;5005038;28;20310;-73
2023/11/28 06:27:44;;;;;;;;;;;;;;;4.25;70.43;95496.56;5006019;28;19955;-74
2023/11/28 06:30:32;;;;;;;;;;;;;;;4.24;70.00;95495.00;5005059;28;20379;-73
2023/11/28 06:33:22;;;;;;;;;;;;;;;4.18;70.45;95495.19;5008350;28;19926;-73
2023/11/28 06:36:12;;;;;;;;;;;;;;;4.27;70.34;95507.78;4996494;28;20582;-73
2023/11/28 06:39:00;;;;;;;;;;;;;;;4.42;69.65;95509.84;5009124;28;19925;-75
2023/11/28 06:41:49;;;;;;;;;;;;;;;4.35;70.24;95505.00;4988511;28;19937;-73
2023/11/28 06:44:37;;;;;;;;;;;;;;;4.35;70.03;95504.22;4986156;28;19930;-73
2023/11/28 06:47:25;;;;;;;;;;;;;;;4.44;69.77;95518.38;4990740;28;20388;-75
2023/11/28 06:50:14;;;;;;;;;;;;;;;4.54;69.31;95517.97;4984411;28;19926;-74
2023/11/28 06:53:02;;;;;;;;;;;;;;;4.54;69.36;95522.56;4988032;28;19926;-74
2023/11/28 06:55:50;;;;;;;;;;;;;;;4.50;69.52;95522.44;4990187;28;19956;-73
2023/11/28 06:58:42;;;;;;;;;;;;;;;4.39;69.53;95523.97;4990065;28;19926;-74
2023/11/28 07:01:30;;;;;;;;;;;;;;;4.32;70.13;95526.41;4985997;28;20446;-73
2023/11/28 07:04:18;;;;;;;;;;;;;;;4.32;70.79;95537.16;4987291;28;20299;-73
2023/11/28 07:07:06;;;;;;;;;;;;;;;4.27;70.15;95540.81;4999906;28;19948;-73
2023/11/28 07:09:54;;;;;;;;;;;;;;;4.15;70.22;95538.84;4994913;28;20015;-73
2023/11/28 07:12:43;;;;;;;;;;;;;;;3.98;71.15;95546.25;4992551;28;19926;-73
2023/11/28 07:15:32;;;;;;;;;;;;;;;4.02;71.21;95550.66;4991014;28;19984;-73
2023/11/28 07:18:20;;;;;;;;;;;;;;;3.92;71.75;95554.50;4988187;28;20052;-74
2023/11/28 07:21:09;;;;;;;;;;;;;;;3.91;71.82;95560.19;4986822;28;20438;-73
2023/11/28 07:23:57;;;;;;;;;;;;;;;3.89;71.94;95565.13;4990006;28;20028;-73
2023/11/28 07:26:45;;;;;;;;;;;;;;;3.87;71.76;95572.69;4992521;28;19969;-74
2023/11/28 07:29:33;;;;;;;;;;;;;;;3.77;71.85;95579.22;4977069;28;19960;-72
2023/11/28 07:32:23;;;;;;;;;;;;;;;3.74;72.04;95581.78;4990946;28;20406;-73
2023/11/28 07:35:12;;;;;;;;;;;;;;;3.59;72.65;95581.22;4989755;28;19933;-73
2023/11/28 07:38:02;;;;;;;;;;;;;;;3.56;72.82;95578.38;4978966;28;20403;-73
2023/11/28 07:40:50;;;;;;;;;;;;;;;3.51;72.93;95589.31;5003449;28;20014;-77
2023/11/28 07:43:38;;;;;;;;;;;;;;;3.52;73.03;95585.53;5009988;28;19929;-74
2023/11/28 07:46:27;;;;;;;;;;;;;;;3.60;72.91;95595.44;5008604;28;19941;-74
2023/11/28 07:49:16;;;;;;;;;;;;;;;3.37;73.41;95598.38;5014014;28;19926;-74
2023/11/28 07:52:05;;;;;;;;;;;;;;;3.33;74.14;95604.69;5009675;28;20407;-74
2023/11/28 07:54:53;;;;;;;;;;;;;;;3.30;73.77;95618.75;4995853;28;20028;-74
2023/11/28 07:57:41;;;;;;;;;;;;;;;3.23;73.54;95621.13;5012492;28;20287;-74
2023/11/28 08:00:30;;;;;;;;;;;;;;;3.34;73.85;95622.38;5004820;28;19933;-74
2023/11/28 08:03:18;;;;;;;;;;;;;;;3.05;74.40;95628.44;5008607;28;20004;-75
2023/11/28 08:06:08;;;;;;;;;;;;;;;3.13;74.72;95639.13;5012293;28;19971;-74
2023/11/28 08:08:56;;;;;;;;;;;;;;;3.23;74.38;95634.56;5011466;28;19975;-74
2023/11/28 08:11:49;;;;;;;;;;;;;;;3.23;74.10;95645.28;5005319;28;20016;-74
2023/11/28 08:14:37;;;;;;;;;;;;;;;3.22;73.90;95651.75;5011817;28;19930;-73
2023/11/28 08:17:25;;;;;;;;;;;;;;;3.20;73.67;95656.66;5011659;28;19926;-74
2023/11/28 08:20:13;;;;;;;;;;;;;;;3.10;74.60;95658.56;5011073;28;19938;-76
2023/11/28 08:23:05;;;;;;;;;;;;;;;3.08;74.36;95668.81;5006051;28;20008;-74
2023/11/28 08:25:53;;;;;;;;;;;;;;;3.01;74.84;95673.88;5003396;28;19968;-74
2023/11/28 08:28:41;;;;;;;;;;;;;;;3.07;74.26;95677.19;5010956;28;19933;-75
2023/11/28 08:31:29;;;;;;;;;;;;;;;2.97;74.31;95680.19;5014395;28;19965;-78
2023/11/28 08:34:19;;;;;;;;;;;;;;;2.91;75.55;95687.63;5000175;28;19953;-74
2023/11/28 08:37:07;;;;;;;;;;;;;;;2.88;74.86;95690.94;5008772;28;20374;-72
2023/11/28 08:39:57;;;;;;;;;;;;;;;3.02;74.90;95696.91;5010830;28;20410;-73
2023/11/28 08:42:45;;;;;;;;;;;;;;;2.99;74.64;95702.94;5010819;28;20012;-74
2023/11/28 08:45:33;;;;;;;;;;;;;;;2.97;74.88;95707.00;5002336;28;20003;-73
2023/11/28 08:48:23;;;;;;;;;;;;;;;2.98;74.99;95716.63;5007309;28;20005;-74
2023/11/28 08:51:11;;;;;;;;;;;;;;;2.77;75.09;95727.19;5007562;28;20752;-73
2023/11/28 08:53:59;;;;;;;;;;;;;;;2.76;75.53;95725.63;5005039;28;20314;-73
2023/11/28 08:56:48;;;;;;;;;;;;;;;2.73;76.00;95732.41;5006192;28;20299;-73
2023/11/28 08:59:36;;;;;;;;;;;;;;;2.70;75.81;95748.31;5006716;28;19960;-71
2023/11/28 09:02:24;;;;;;;;;;;;;;;2.85;75.42;95745.19;5011251;28;19925;-71
2023/11/28 09:05:15;;;;;;;;;;;;;;;2.86;75.58;95760.19;5007597;28;19925;-71
2023/11/28 09:08:04;;;;;;;;;;;;;;;2.79;75.67;95763.34;5010879;28;19960;-71
2023/11/28 09:10:53;;;;;;;;;;;;;;;2.83;75.60;95774.22;5009999;28;19937;-71
2023/11/28 09:13:43;;;;;;;;;;;;;;;2.75;75.47;95781.13;5011451;28;20276;-71
2023/11/28 09:16:31;;;;;;;;;;;;;;;2.70;75.73;95785.88;5008869;28;19925;-71
2023/11/28 09:19:19;;;;;;;;;;;;;;;2.74;76.03;95786.81;5010671;28;19929;-71
2023/11/28 09:22:07;;;;;;;;;;;;;;;2.69;75.88;95803.06;5011512;28;20552;-71
2023/11/28 09:24:55;;;;;;;;;;;;;;;2.87;75.86;95800.06;5006535;28;20039;-71
2023/11/28 09:27:43;;;;;;;;;;;;;;;2.72;75.72;95807.81;5007879;28;20075;-71
2023/11/28 09:30:33;;;;;;;;;;;;;;;2.51;76.62;95815.63;5007935;28;19933;-70
2023/11/28 09:33:21;;;;;;;;;;;;;;;2.81;75.96;95813.97;5001617;28;19925;-71
2023/11/28 09:36:09;;;;;;;;;;;;;;;2.79;75.64;95824.22;5009306;28;19925;-71
2023/11/28 09:39:04;;;;;;;;;;;;;;;2.76;75.68;95830.19;5009795;28;19969;-71
2023/11/28 09:41:53;;;;;;;;;;;;;;;2.87;75.57;95831.47;5006694;28;19933;-71
2023/11/28 09:44:41;;;;;;;;;;;;;;;2.87;75.03;95837.63;5002461;28;19984;-71
2023/11/28 09:47:31;;;;;;;;;;;;;;;2.94;75.34;95839.09;5009270;28;19934;-72
2023/11/28 09:50:19;;;;;;;;;;;;;;;2.84;74.96;95846.31;5006228;28;19926;-71
2023/11/28 09:53:07;;;;;;;;;;;;;;;2.50;76.64;95855.00;5006991;28;19925;-71
2023/11/28 09:55:58;;;;;;;;;;;;;;;2.74;76.09;95856.53;5010572;28;20406;-71
2023/11/28 09:58:50;;;;;;;;;;;;;;;2.71;75.60;95857.16;5004968;28;20027;-71
2023/11/28 10:01:38;;;;;;;;;;;;;;;2.49;76.67;95866.84;5009563;28;19960;-71
2023/11/28 10:04:28;;;;;;;;;;;;;;;2.56;76.39;95880.59;5004746;28;19926;-71
2023/11/28 10:07:16;;;;;;;;;;;;;;;2.36;77.29;95884.63;5004107;28;19926;-71
2023/11/28 10:10:07;;;;;;;;;;;;;;;2.18;78.50;95892.84;5003240;28;20692;-71
2023/11/28 10:12:57;;;;;;;;;;;;;;;2.30;77.40;95895.78;5005145;28;19925;-71
2023/11/28 10:15:49;;;;;;;;;;;;;;;2.00;78.54;95903.47;5008711;28;19940;-70
2023/11/28 10:18:37;;;;;;;;;;;;;;;1.90;78.63;95908.28;5009705;28;20409;-70
2023/11/28 10:21:27;;;;;;;;;;;;;;;1.95;79.45;95916.97;5007706;28;19929;-70
2023/11/28 10:24:15;;;;;;;;;;;;;;;1.97;78.91;95925.50;5008094;28;19932;-71
2023/11/28 10:27:03;;;;;;;;;;;;;;;1.83;79.56;95930.13;5001784;28;19926;-71
2023/11/28 10:29:53;;;;;;;;;;;;;;;1.88;79.21;95930.00;5005113;28;19933;-72
2023/11/28 10:32:42;;;;;;;;;;;;;;;1.80;79.35;95941.44;4980521;28;19933;-70
2023/11/28 10:35:40;;;;;;;;;;;;;;;1.76;79.25;95930.56;5007540;28;19977;-70
2023/11/28 10:38:30;;;;;;;;;;;;;;;1.73;79.74;95941.06;5007603;28;20299;-71
2023/11/28 10:41:18;;;;;;;;;;;;;;;1.94;79.43;95944.84;5009822;28;19926;-71
2023/11/28 10:44:07;;;;;;;;;;;;;;;2.02;79.26;95949.47;5005926;28;19933;-70
2023/11/28 10:46:56;;;;;;;;;;;;;;;1.97;79.04;95952.28;5005829;28;19926;-71
2023/11/28 10:49:45;;;;;;;;;;;;;;;2.10;79.33;95961.34;5009086;28;19926;-71
2023/11/28 10:52:33;;;;;;;;;;;;;;;1.80;78.90;95973.56;5008413;28;20072;-70
2023/11/28 10:55:22;;;;;;;;;;;;;;;1.97;79.41;95981.75;5009383;28;19933;-71
2023/11/28 10:58:13;;;;;;;;;;;;;;;1.80;79.40;95984.25;5005446;28;19932;-71
2023/11/28 11:01:02;;;;;;;;;;;;;;;1.70;79.95;95981.81;5004568;28;19929;-71
2023/11/28 11:03:50;;;;;;;;;;;;;;;1.80;79.78;95989.63;5005157;28;19933;-72
2023/11/28 11:06:40;;;;;;;;;;;;;;;1.65;78.48;95987.28;5002801;28;19940;-70
2023/11/28 11:09:31;;;;;;;;;;;;;;;1.75;79.37;95987.06;5008184;28;19937;-70
2023/11/28 11:12:21;;;;;;;;;;;;;;;1.75;79.22;96000.44;5008135;28;19925;-71
2023/11/28 11:15:11;;;;;;;;;;;;;;;1.68;78.50;95997.38;5009590;28;19936;-70
2023/11/28 11:18:00;;;;;;;;;;;;;;;1.61;79.29;96013.06;5004521;28;19925;-71
2023/11/28 11:20:49;;;;;;;;;;;;;;;1.65;79.09;96019.38;4996938;28;19932;-72
2023/11/28 11:23:37;;;;;;;;;;;;;;;1.54;80.11;96027.63;5000371;28;19934;-70
2023/11/28 11:26:34;;;;;;;;;;;;;;;1.39;79.86;96027.97;5003356;28;20406;-72
2023/11/28 11:29:37;;;;;;;;;;;;;;;1.57;80.27;96037.75;4989265;28;20376;-71
2023/11/28 11:32:26;;;;;;;;;;;;;;;1.18;80.10;96045.50;5006813;28;19967;-71
2023/11/28 11:35:14;;;;;;;;;;;;;;;1.38;80.46;96053.13;5002340;28;20303;-71
2023/11/28 11:38:02;;;;;;;;;;;;;;;1.31;80.43;96055.41;4999864;28;19925;-71
2023/11/28 11:40:50;;;;;;;;;;;;;;;1.57;78.86;96069.06;4999820;28;19926;-71
2023/11/28 11:43:39;;;;;;;;;;;;;;;1.53;78.01;96068.88;5007754;28;19977;-71
2023/11/28 11:46:28;;;;;;;;;;;;;;;1.48;77.12;96079.66;5009525;28;19961;-71
2023/11/28 11:49:17;;;;;;;;;;;;;;;1.48;77.13;96094.94;5004284;28;20033;-71
2023/11/28 11:52:05;;;;;;;;;;;;;;;1.30;77.46;96084.03;5007876;28;19960;-70
2023/11/28 11:54:54;;;;;;;;;;;;;;;1.26;77.00;96106.31;5010205;28;19933;-70
2023/11/28 11:57:43;;;;;;;;;;;;;;;1.29;76.78;96111.09;4999470;28;20416;-70
2023/11/28 12:00:31;;;;;;;;;;;;;;;1.34;76.84;96126.25;5009141;28;19925;-70
2023/11/28 12:03:21;;;;;;;;;;;;;;;1.35;76.83;96123.28;5012228;28;19980;-71
2023/11/28 12:06:09;;;;;;;;;;;;;;;1.44;76.15;96132.22;5009986;28;19926;-70
2023/11/28 12:08:59;;;;;;;;;;;;;;;1.52;75.47;96139.53;5001980;28;19926;-70
2023/11/28 12:11:47;;;;;;;;;;;;;;;1.17;76.80;96140.19;5010113;28;19926;-70
2023/11/28 12:14:35;;;;;;;;;;;;;;;1.32;76.70;96142.59;5005750;28;20385;-69
2023/11/28 12:17:23;;;;;;;;;;;;;;;1.35;76.33;96146.56;5005134;28;20019;-70
2023/11/28 12:20:13;;;;;;;;;;;;;;;1.34;76.40;96158.38;5008116;28;19929;-70
2023/11/28 12:23:02;;;;;;;;;;;;;;;1.35;75.45;96174.13;5000627;28;20311;-70
2023/11/28 12:25:50;;;;;;;;;;;;;;;1.21;76.13;96176.75;5008237;28;20418;-70
2023/11/28 12:28:40;;;;;;;;;;;;;;;1.23;75.67;96203.22;5004586;28;19937;-70
2023/11/28 12:31:28;;;;;;;;;;;;;;;1.12;74.92;96199.09;5009667;28;19933;-70
2023/11/28 12:34:16;;;;;;;;;;;;;;;1.10;76.78;96199.41;5010583;28;19930;-71
2023/11/28 12:37:05;;;;;;;;;;;;;;;1.12;74.96;96210.63;5005900;28;19925;-70
2023/11/28 12:39:54;;;;;;;;;;;;;;;1.17;75.73;96218.56;5009815;28;19925;-70
2023/11/28 12:42:43;;;;;;;;;;;;;;;1.11;74.28;96221.59;5009029;28;19926;-70
2023/11/28 12:45:32;;;;;;;;;;;;;;;1.36;73.80;96237.25;5010315;28;20387;-70
2023/11/28 12:48:20;;;;;;;;;;;;;;;1.19;74.18;96242.34;5010435;28;19925;-70
2023/11/28 12:51:08;;;;;;;;;;;;;;;1.25;73.48;96246.53;5009621;28;19925;-70
2023/11/28 12:54:01;;;;;;;;;;;;;;;1.24;73.57;96261.00;5010282;28;19925;-70
2023/11/28 12:56:52;;;;;;;;;;;;;;;1.16;73.37;96264.31;5008781;28;20281;-70
2023/11/28 12:59:42;;;;;;;;;;;;;;;0.97;73.39;96267.00;5003101;28;19933;-71
2023/11/28 13:02:30;;;;;;;;;;;;;;;1.13;73.99;96268.38;5007894;28;19926;-71
2023/11/28 13:05:19;;;;;;;;;;;;;;;1.08;72.98;96289.06;5009194;28;19931;-71
2023/11/28 13:08:07;;;;;;;;;;;;;;;1.15;72.59;96287.59;5004396;28;19926;-71
2023/11/28 13:10:56;;;;;;;;;;;;;;;1.03;73.44;96301.41;5008240;28;20023;-71
2023/11/28 13:13:45;;;;;;;;;;;;;;;1.19;72.28;96301.19;5007407;28;20541;-71
2023/11/28 13:16:33;;;;;;;;;;;;;;;1.10;72.49;96314.41;5003784;28;20331;-72
2023/11/28 13:19:28;;;;;;;;;;;;;;;1.29;72.25;96330.47;5010726;28;19929;-71
2023/11/28 13:22:18;;;;;;;;;;;;;;;1.30;71.17;96329.38;5009998;28;19935;-71
2023/11/28 13:25:07;;;;;;;;;;;;;;;1.40;70.90;96328.44;5008675;28;19984;-71
2023/11/28 13:27:57;;;;;;;;;;;;;;;1.22;71.15;96344.19;5010919;28;20290;-71
2023/11/28 13:30:45;;;;;;;;;;;;;;;1.58;70.43;96347.13;5006034;28;20415;-71
2023/11/28 13:33:33;;;;;;;;;;;;;;;1.54;70.84;96350.69;5005428;28;19930;-71
2023/11/28 13:36:21;;;;;;;;;;;;;;;1.60;70.73;96362.09;5005731;28;19971;-71
2023/11/28 13:39:10;;;;;;;;;;;;;;;1.50;70.86;96366.53;5022603;28;20015;-71
2023/11/28 13:41:58;;;;;;;;;;;;;;;1.52;71.40;96376.94;4995868;28;19925;-71
2023/11/28 13:44:47;;;;;;;;;;;;;;;1.44;71.60;96383.75;4986142;28;20030;-71
2023/11/28 13:47:37;;;;;;;;;;;;;;;1.66;71.36;96382.38;4989191;28;20021;-71
2023/11/28 13:50:26;;;;;;;;;;;;;;;1.50;71.78;96387.16;4978349;28;19941;-71
2023/11/28 13:53:14;;;;;;;;;;;;;;;1.43;72.53;96398.19;4988172;28;20392;-71
2023/11/28 13:56:02;;;;;;;;;;;;;;;1.42;72.64;96404.66;4990031;28;19926;-71
2023/11/28 13:58:50;;;;;;;;;;;;;;;1.48;72.51;96416.88;4989281;28;21809;-71
2023/11/28 14:01:40;;;;;;;;;;;;;;;1.37;72.52;96426.13;4980706;28;20012;-71
2023/11/28 14:04:28;;;;;;;;;;;;;;;1.20;73.06;96431.16;4991156;28;19961;-71
2023/11/28 14:07:16;;;;;;;;;;;;;;;1.26;72.44;96438.84;4992969;28;19925;-72
2023/11/28 14:10:05;;;;;;;;;;;;;;;1.13;72.88;96438.75;4984626;28;19969;-72
2023/11/28 14:12:53;;;;;;;;;;;;;;;1.31;72.20;96454.81;4991673;28;19933;-71
2023/11/28 14:15:41;;;;;;;;;;;;;;;1.27;71.50;96464.50;4990673;28;20015;-72
2023/11/28 14:18:30;;;;;;;;;;;;;;;1.22;70.89;96471.78;4993258;28;19926;-71
2023/11/28 14:21:18;;;;;;;;;;;;;;;1.13;70.23;96485.03;4989269;28;19930;-71
2023/11/28 14:24:07;;;;;;;;;;;;;;;1.33;70.69;96488.53;4990353;28;20079;-71
2023/11/28 14:26:59;;;;;;;;;;;;;;;1.17;70.36;96482.56;4992603;28;19952;-72
2023/11/28 14:29:47;;;;;;;;;;;;;;;1.21;70.21;96491.59;4985735;28;19934;-71
2023/11/28 14:32:36;;;;;;;;;;;;;;;1.30;70.38;96495.25;4988738;28;19926;-72
2023/11/28 14:35:26;;;;;;;;;;;;;;;1.13;70.09;96498.41;4975116;28;20350;-71
2023/11/28 14:38:14;;;;;;;;;;;;;;;1.10;70.95;96511.53;4994436;28;19936;-71
2023/11/28 14:41:03;;;;;;;;;;;;;;;1.01;70.55;96520.19;4999162;28;19983;-71
2023/11/28 14:43:51;;;;;;;;;;;;;;;0.88;71.00;96517.38;5005016;28;19953;-72
2023/11/28 14:46:40;;;;;;;;;;;;;;;0.77;70.23;96524.72;5009905;28;19972;-72
2023/11/28 14:49:28;;;;;;;;;;;;;;;0.91;69.04;96536.34;5011237;28;20386;-71
2023/11/28 14:52:20;;;;;;;;;;;;;;;1.05;69.85;96541.81;5002488;28;19930;-72